Terminal Aerodrome Forecast
Issued by NWS

Home | Current Version | Previous Version | Graphics & Text | Print | Product List | Glossary On
Versions: 1 2 3 4 5 6 7 8 9 10 11 12 13 14 15 16 17 18 19 20 21 22 23 24 25 26 27 28 29 30
533
FTUS45 KGGW 211720
TAFGDV
TAF
KGDV 211720Z 2118/2218 32018G30KT P6SM SKC
     FM220000 32010KT P6SM SKC
     FM220300 05005KT P6SM BKN110
     FM220700 28008KT P6SM SCT110
     FM221500 29014KT P6SM SKC=

USA.gov is the U.S. government's official web portal to all federal, state and local government web resources and services.